sensor_id;sensor_type;location;lat;lon;timestamp;P1;durP1;ratioP1;P2;durP2;ratioP2
27489;SDS011;14925;51.026;13.752;2023-08-12T00:00:39;10.88;;;4.68;;
27489;SDS011;14925;51.026;13.752;2023-08-12T00:03:04;8.90;;;4.65;;
27489;SDS011;14925;51.026;13.752;2023-08-12T00:05:29;8.60;;;4.38;;
27489;SDS011;14925;51.026;13.752;2023-08-12T00:07:55;8.25;;;4.50;;
27489;SDS011;14925;51.026;13.752;2023-08-12T00:10:20;11.20;;;4.78;;
27489;SDS011;14925;51.026;13.752;2023-08-12T00:12:45;6.47;;;4.70;;
27489;SDS011;14925;51.026;13.752;2023-08-12T00:15:11;8.85;;;4.50;;
27489;SDS011;14925;51.026;13.752;2023-08-12T00:17:37;10.45;;;5.00;;
27489;SDS011;14925;51.026;13.752;2023-08-12T00:20:03;8.05;;;4.72;;
27489;SDS011;14925;51.026;13.752;2023-08-12T00:22:33;5.90;;;4.95;;
27489;SDS011;14925;51.026;13.752;2023-08-12T00:24:59;6.65;;;4.55;;
27489;SDS011;14925;51.026;13.752;2023-08-12T00:27:25;10.23;;;4.80;;
27489;SDS011;14925;51.026;13.752;2023-08-12T00:29:50;10.30;;;4.70;;
27489;SDS011;14925;51.026;13.752;2023-08-12T00:32:16;7.25;;;4.22;;
27489;SDS011;14925;51.026;13.752;2023-08-12T00:34:41;8.52;;;4.20;;
27489;SDS011;14925;51.026;13.752;2023-08-12T00:37:07;7.13;;;3.97;;
27489;SDS011;14925;51.026;13.752;2023-08-12T00:39:32;8.15;;;4.65;;
27489;SDS011;14925;51.026;13.752;2023-08-12T00:41:57;9.38;;;4.45;;
27489;SDS011;14925;51.026;13.752;2023-08-12T00:44:23;9.02;;;4.55;;
27489;SDS011;14925;51.026;13.752;2023-08-12T00:46:48;8.63;;;4.97;;
27489;SDS011;14925;51.026;13.752;2023-08-12T00:49:14;8.95;;;4.50;;
27489;SDS011;14925;51.026;13.752;2023-08-12T00:51:41;7.10;;;4.28;;
27489;SDS011;14925;51.026;13.752;2023-08-12T00:54:06;10.13;;;4.68;;
27489;SDS011;14925;51.026;13.752;2023-08-12T00:56:33;9.10;;;4.55;;
27489;SDS011;14925;51.026;13.752;2023-08-12T00:59:02;7.05;;;4.43;;
27489;SDS011;14925;51.026;13.752;2023-08-12T01:01:30;10.25;;;4.78;;
27489;SDS011;14925;51.026;13.752;2023-08-12T01:03:56;11.05;;;4.60;;
27489;SDS011;14925;51.026;13.752;2023-08-12T01:06:21;6.57;;;4.13;;
27489;SDS011;14925;51.026;13.752;2023-08-12T01:08:47;9.05;;;4.53;;
27489;SDS011;14925;51.026;13.752;2023-08-12T01:16:07;6.53;;;4.22;;
27489;SDS011;14925;51.026;13.752;2023-08-12T01:18:33;7.43;;;4.13;;
27489;SDS011;14925;51.026;13.752;2023-08-12T01:20:59;9.10;;;4.85;;
27489;SDS011;14925;51.026;13.752;2023-08-12T01:23:25;7.22;;;4.32;;
27489;SDS011;14925;51.026;13.752;2023-08-12T01:25:50;6.03;;;4.40;;
27489;SDS011;14925;51.026;13.752;2023-08-12T01:28:16;8.27;;;4.43;;
27489;SDS011;14925;51.026;13.752;2023-08-12T01:31:29;8.73;;;4.05;;
27489;SDS011;14925;51.026;13.752;2023-08-12T01:33:42;10.68;;;4.95;;
27489;SDS011;14925;51.026;13.752;2023-08-12T01:36:10;8.18;;;4.38;;
27489;SDS011;14925;51.026;13.752;2023-08-12T01:38:39;7.63;;;4.45;;
27489;SDS011;14925;51.026;13.752;2023-08-12T01:41:06;7.40;;;4.60;;
27489;SDS011;14925;51.026;13.752;2023-08-12T01:43:34;7.78;;;4.82;;
27489;SDS011;14925;51.026;13.752;2023-08-12T01:45:59;6.85;;;4.28;;
27489;SDS011;14925;51.026;13.752;2023-08-12T01:48:24;7.35;;;4.45;;
27489;SDS011;14925;51.026;13.752;2023-08-12T01:50:50;8.70;;;4.68;;
27489;SDS011;14925;51.026;13.752;2023-08-12T01:53:15;8.80;;;4.50;;
27489;SDS011;14925;51.026;13.752;2023-08-12T01:55:42;10.43;;;4.47;;
27489;SDS011;14925;51.026;13.752;2023-08-12T01:58:08;7.40;;;4.25;;
27489;SDS011;14925;51.026;13.752;2023-08-12T02:00:34;5.65;;;4.43;;
27489;SDS011;14925;51.026;13.752;2023-08-12T02:02:59;7.68;;;4.28;;
27489;SDS011;14925;51.026;13.752;2023-08-12T02:05:24;8.75;;;4.57;;
27489;SDS011;14925;51.026;13.752;2023-08-12T02:07:50;9.82;;;5.18;;
27489;SDS011;14925;51.026;13.752;2023-08-12T02:10:15;6.85;;;4.22;;
27489;SDS011;14925;51.026;13.752;2023-08-12T02:12:41;11.35;;;4.60;;
27489;SDS011;14925;51.026;13.752;2023-08-12T02:15:06;6.10;;;4.70;;
27489;SDS011;14925;51.026;13.752;2023-08-12T02:17:32;7.18;;;4.45;;
27489;SDS011;14925;51.026;13.752;2023-08-12T02:19:57;6.88;;;4.43;;
27489;SDS011;14925;51.026;13.752;2023-08-12T02:22:22;14.77;;;4.50;;
27489;SDS011;14925;51.026;13.752;2023-08-12T02:24:48;9.38;;;4.88;;
27489;SDS011;14925;51.026;13.752;2023-08-12T02:27:13;6.95;;;4.60;;
27489;SDS011;14925;51.026;13.752;2023-08-12T02:29:38;8.25;;;4.30;;
27489;SDS011;14925;51.026;13.752;2023-08-12T02:32:04;9.60;;;4.68;;
27489;SDS011;14925;51.026;13.752;2023-08-12T02:34:29;7.90;;;4.50;;
27489;SDS011;14925;51.026;13.752;2023-08-12T02:36:55;8.07;;;4.43;;
27489;SDS011;14925;51.026;13.752;2023-08-12T02:39:20;10.85;;;4.45;;
27489;SDS011;14925;51.026;13.752;2023-08-12T02:41:45;7.18;;;4.32;;
27489;SDS011;14925;51.026;13.752;2023-08-12T02:44:11;9.10;;;4.90;;
27489;SDS011;14925;51.026;13.752;2023-08-12T02:46:36;9.07;;;4.50;;
27489;SDS011;14925;51.026;13.752;2023-08-12T02:49:02;6.60;;;4.50;;
27489;SDS011;14925;51.026;13.752;2023-08-12T02:51:27;7.78;;;4.38;;
27489;SDS011;14925;51.026;13.752;2023-08-12T02:53:52;6.22;;;4.30;;
27489;SDS011;14925;51.026;13.752;2023-08-12T02:56:18;6.50;;;3.97;;
27489;SDS011;14925;51.026;13.752;2023-08-12T02:58:43;9.23;;;4.57;;
27489;SDS011;14925;51.026;13.752;2023-08-12T03:01:08;12.15;;;4.90;;
27489;SDS011;14925;51.026;13.752;2023-08-12T03:03:34;12.20;;;4.70;;
27489;SDS011;14925;51.026;13.752;2023-08-12T03:05:59;8.57;;;4.63;;
27489;SDS011;14925;51.026;13.752;2023-08-12T03:08:25;7.57;;;4.35;;
27489;SDS011;14925;51.026;13.752;2023-08-12T03:10:50;7.75;;;4.50;;
27489;SDS011;14925;51.026;13.752;2023-08-12T03:13:23;7.47;;;4.47;;
27489;SDS011;14925;51.026;13.752;2023-08-12T03:15:48;7.40;;;4.38;;
27489;SDS011;14925;51.026;13.752;2023-08-12T03:18:14;9.55;;;4.85;;
27489;SDS011;14925;51.026;13.752;2023-08-12T03:20:39;8.23;;;4.95;;
27489;SDS011;14925;51.026;13.752;2023-08-12T03:23:04;9.02;;;4.40;;
27489;SDS011;14925;51.026;13.752;2023-08-12T03:25:30;5.78;;;4.45;;
27489;SDS011;14925;51.026;13.752;2023-08-12T03:27:55;7.38;;;4.95;;
27489;SDS011;14925;51.026;13.752;2023-08-12T03:30:20;10.27;;;4.63;;
27489;SDS011;14925;51.026;13.752;2023-08-12T03:32:46;10.85;;;4.63;;
27489;SDS011;14925;51.026;13.752;2023-08-12T03:35:11;9.80;;;4.78;;
27489;SDS011;14925;51.026;13.752;2023-08-12T03:37:37;9.85;;;4.80;;
27489;SDS011;14925;51.026;13.752;2023-08-12T03:40:02;9.15;;;4.88;;
27489;SDS011;14925;51.026;13.752;2023-08-12T03:42:28;6.43;;;4.88;;
27489;SDS011;14925;51.026;13.752;2023-08-12T03:44:54;8.32;;;5.10;;
27489;SDS011;14925;51.026;13.752;2023-08-12T03:47:19;8.05;;;4.20;;
27489;SDS011;14925;51.026;13.752;2023-08-12T03:49:47;8.60;;;4.32;;
27489;SDS011;14925;51.026;13.752;2023-08-12T03:52:12;9.60;;;4.43;;
27489;SDS011;14925;51.026;13.752;2023-08-12T03:54:38;6.85;;;4.68;;
27489;SDS011;14925;51.026;13.752;2023-08-12T03:57:03;5.90;;;4.20;;
27489;SDS011;14925;51.026;13.752;2023-08-12T03:59:29;6.60;;;4.35;;
27489;SDS011;14925;51.026;13.752;2023-08-12T04:01:54;11.98;;;4.72;;
27489;SDS011;14925;51.026;13.752;2023-08-12T04:04:20;7.43;;;4.47;;
27489;SDS011;14925;51.026;13.752;2023-08-12T04:06:45;6.40;;;4.28;;
27489;SDS011;14925;51.026;13.752;2023-08-12T04:09:13;10.45;;;4.80;;
27489;SDS011;14925;51.026;13.752;2023-08-12T04:11:38;9.25;;;4.43;;
27489;SDS011;14925;51.026;13.752;2023-08-12T04:14:04;7.88;;;4.60;;
27489;SDS011;14925;51.026;13.752;2023-08-12T04:16:29;9.25;;;4.55;;
27489;SDS011;14925;51.026;13.752;2023-08-12T04:18:54;8.10;;;4.85;;
27489;SDS011;14925;51.026;13.752;2023-08-12T04:21:20;7.97;;;4.57;;
27489;SDS011;14925;51.026;13.752;2023-08-12T04:23:45;8.45;;;4.35;;
27489;SDS011;14925;51.026;13.752;2023-08-12T04:26:10;8.32;;;4.13;;
27489;SDS011;14925;51.026;13.752;2023-08-12T04:28:36;8.95;;;4.50;;
27489;SDS011;14925;51.026;13.752;2023-08-12T04:31:05;8.05;;;4.75;;
27489;SDS011;14925;51.026;13.752;2023-08-12T04:33:31;9.10;;;4.25;;
27489;SDS011;14925;51.026;13.752;2023-08-12T04:35:56;9.40;;;4.28;;
27489;SDS011;14925;51.026;13.752;2023-08-12T04:38:23;8.05;;;4.22;;
27489;SDS011;14925;51.026;13.752;2023-08-12T04:40:48;8.93;;;4.30;;
27489;SDS011;14925;51.026;13.752;2023-08-12T04:43:14;8.98;;;4.03;;
27489;SDS011;14925;51.026;13.752;2023-08-12T04:45:39;9.25;;;4.53;;
27489;SDS011;14925;51.026;13.752;2023-08-12T04:48:05;5.78;;;3.85;;
27489;SDS011;14925;51.026;13.752;2023-08-12T04:50:31;5.00;;;4.15;;
27489;SDS011;14925;51.026;13.752;2023-08-12T04:52:56;11.90;;;4.30;;
27489;SDS011;14925;51.026;13.752;2023-08-12T04:55:24;8.32;;;3.80;;
27489;SDS011;14925;51.026;13.752;2023-08-12T04:57:49;10.32;;;4.28;;
27489;SDS011;14925;51.026;13.752;2023-08-12T05:00:15;7.15;;;4.18;;
27489;SDS011;14925;51.026;13.752;2023-08-12T05:02:40;9.00;;;4.22;;
27489;SDS011;14925;51.026;13.752;2023-08-12T05:05:06;7.68;;;4.05;;
27489;SDS011;14925;51.026;13.752;2023-08-12T05:07:31;6.72;;;4.38;;
27489;SDS011;14925;51.026;13.752;2023-08-12T05:09:58;7.85;;;4.35;;
27489;SDS011;14925;51.026;13.752;2023-08-12T05:12:24;9.00;;;4.60;;
27489;SDS011;14925;51.026;13.752;2023-08-12T05:14:49;8.48;;;4.10;;
27489;SDS011;14925;51.026;13.752;2023-08-12T05:17:15;7.18;;;4.10;;
27489;SDS011;14925;51.026;13.752;2023-08-12T05:19:43;7.65;;;4.50;;
27489;SDS011;14925;51.026;13.752;2023-08-12T05:22:08;7.80;;;4.07;;
27489;SDS011;14925;51.026;13.752;2023-08-12T05:24:34;8.85;;;4.70;;
27489;SDS011;14925;51.026;13.752;2023-08-12T05:26:59;12.60;;;4.20;;
27489;SDS011;14925;51.026;13.752;2023-08-12T05:29:24;6.47;;;3.70;;
27489;SDS011;14925;51.026;13.752;2023-08-12T05:31:50;8.50;;;4.00;;
27489;SDS011;14925;51.026;13.752;2023-08-12T05:34:15;7.93;;;3.97;;
27489;SDS011;14925;51.026;13.752;2023-08-12T05:36:40;6.97;;;4.20;;
27489;SDS011;14925;51.026;13.752;2023-08-12T05:39:06;9.63;;;3.60;;
27489;SDS011;14925;51.026;13.752;2023-08-12T05:41:31;8.95;;;3.83;;
27489;SDS011;14925;51.026;13.752;2023-08-12T05:43:56;6.60;;;3.95;;
27489;SDS011;14925;51.026;13.752;2023-08-12T05:46:22;6.78;;;4.13;;
27489;SDS011;14925;51.026;13.752;2023-08-12T05:48:47;5.78;;;3.85;;
27489;SDS011;14925;51.026;13.752;2023-08-12T05:51:12;9.23;;;4.20;;
27489;SDS011;14925;51.026;13.752;2023-08-12T05:53:38;9.82;;;4.10;;
27489;SDS011;14925;51.026;13.752;2023-08-12T05:56:04;8.52;;;3.50;;
27489;SDS011;14925;51.026;13.752;2023-08-12T05:58:33;6.00;;;3.85;;
27489;SDS011;14925;51.026;13.752;2023-08-12T06:00:58;5.80;;;3.40;;
27489;SDS011;14925;51.026;13.752;2023-08-12T06:03:23;7.95;;;3.53;;
27489;SDS011;14925;51.026;13.752;2023-08-12T06:05:49;5.28;;;3.50;;
27489;SDS011;14925;51.026;13.752;2023-08-12T06:08:14;7.93;;;3.50;;
27489;SDS011;14925;51.026;13.752;2023-08-12T06:10:40;5.65;;;3.50;;
27489;SDS011;14925;51.026;13.752;2023-08-12T06:13:06;4.70;;;3.30;;
27489;SDS011;14925;51.026;13.752;2023-08-12T06:15:31;4.63;;;3.60;;
27489;SDS011;14925;51.026;13.752;2023-08-12T06:17:57;9.60;;;3.80;;
27489;SDS011;14925;51.026;13.752;2023-08-12T06:20:23;7.05;;;3.63;;
27489;SDS011;14925;51.026;13.752;2023-08-12T06:22:49;4.50;;;3.28;;
27489;SDS011;14925;51.026;13.752;2023-08-12T06:25:15;7.38;;;3.40;;
27489;SDS011;14925;51.026;13.752;2023-08-12T06:27:40;4.47;;;3.35;;
27489;SDS011;14925;51.026;13.752;2023-08-12T06:30:06;5.65;;;3.10;;
27489;SDS011;14925;51.026;13.752;2023-08-12T06:32:33;8.93;;;3.30;;
27489;SDS011;14925;51.026;13.752;2023-08-12T06:34:59;5.95;;;3.30;;
27489;SDS011;14925;51.026;13.752;2023-08-12T06:37:24;5.55;;;3.25;;
27489;SDS011;14925;51.026;13.752;2023-08-12T06:39:50;8.32;;;3.20;;
27489;SDS011;14925;51.026;13.752;2023-08-12T06:42:15;5.55;;;3.47;;
27489;SDS011;14925;51.026;13.752;2023-08-12T06:44:41;6.75;;;3.00;;
27489;SDS011;14925;51.026;13.752;2023-08-12T06:47:06;6.47;;;3.40;;
27489;SDS011;14925;51.026;13.752;2023-08-12T06:49:32;5.63;;;3.33;;
27489;SDS011;14925;51.026;13.752;2023-08-12T06:51:57;6.03;;;3.65;;
27489;SDS011;14925;51.026;13.752;2023-08-12T06:54:22;7.15;;;3.67;;
27489;SDS011;14925;51.026;13.752;2023-08-12T06:56:48;8.15;;;3.30;;
27489;SDS011;14925;51.026;13.752;2023-08-12T06:59:14;7.65;;;3.70;;
27489;SDS011;14925;51.026;13.752;2023-08-12T07:01:40;5.65;;;3.50;;
27489;SDS011;14925;51.026;13.752;2023-08-12T07:04:05;15.45;;;3.80;;
27489;SDS011;14925;51.026;13.752;2023-08-12T07:06:30;6.93;;;3.50;;
27489;SDS011;14925;51.026;13.752;2023-08-12T07:08:56;5.97;;;3.30;;
27489;SDS011;14925;51.026;13.752;2023-08-12T07:11:21;6.82;;;3.45;;
27489;SDS011;14925;51.026;13.752;2023-08-12T07:13:47;5.35;;;3.22;;
27489;SDS011;14925;51.026;13.752;2023-08-12T07:16:12;6.88;;;3.30;;
27489;SDS011;14925;51.026;13.752;2023-08-12T07:18:37;7.20;;;3.70;;
27489;SDS011;14925;51.026;13.752;2023-08-12T07:21:03;6.82;;;3.67;;
27489;SDS011;14925;51.026;13.752;2023-08-12T07:23:28;3.88;;;3.47;;
27489;SDS011;14925;51.026;13.752;2023-08-12T07:25:54;5.90;;;3.47;;
27489;SDS011;14925;51.026;13.752;2023-08-12T07:28:20;6.20;;;3.47;;
27489;SDS011;14925;51.026;13.752;2023-08-12T07:30:45;8.90;;;3.20;;
27489;SDS011;14925;51.026;13.752;2023-08-12T07:33:10;7.53;;;3.28;;
27489;SDS011;14925;51.026;13.752;2023-08-12T07:35:36;8.77;;;3.40;;
27489;SDS011;14925;51.026;13.752;2023-08-12T07:38:01;5.50;;;3.63;;
27489;SDS011;14925;51.026;13.752;2023-08-12T07:40:27;11.60;;;3.67;;
27489;SDS011;14925;51.026;13.752;2023-08-12T07:42:52;22.27;;;4.40;;
27489;SDS011;14925;51.026;13.752;2023-08-12T07:45:17;6.38;;;3.53;;
27489;SDS011;14925;51.026;13.752;2023-08-12T07:47:46;4.22;;;2.90;;
27489;SDS011;14925;51.026;13.752;2023-08-12T07:50:11;7.80;;;3.60;;
27489;SDS011;14925;51.026;13.752;2023-08-12T07:52:41;5.72;;;3.15;;
27489;SDS011;14925;51.026;13.752;2023-08-12T07:55:07;4.75;;;3.35;;
27489;SDS011;14925;51.026;13.752;2023-08-12T07:57:32;7.95;;;3.35;;
27489;SDS011;14925;51.026;13.752;2023-08-12T08:00:01;4.45;;;3.00;;
27489;SDS011;14925;51.026;13.752;2023-08-12T08:02:26;8.25;;;2.95;;
27489;SDS011;14925;51.026;13.752;2023-08-12T08:04:55;11.80;;;3.40;;
27489;SDS011;14925;51.026;13.752;2023-08-12T08:07:20;8.40;;;3.63;;
27489;SDS011;14925;51.026;13.752;2023-08-12T08:09:45;5.70;;;3.00;;
27489;SDS011;14925;51.026;13.752;2023-08-12T08:12:11;4.07;;;2.92;;
27489;SDS011;14925;51.026;13.752;2023-08-12T08:14:37;7.13;;;3.40;;
27489;SDS011;14925;51.026;13.752;2023-08-12T08:17:05;5.35;;;2.78;;
27489;SDS011;14925;51.026;13.752;2023-08-12T08:19:31;7.35;;;2.90;;
27489;SDS011;14925;51.026;13.752;2023-08-12T08:21:57;5.20;;;3.17;;
27489;SDS011;14925;51.026;13.752;2023-08-12T08:24:23;4.00;;;3.05;;
27489;SDS011;14925;51.026;13.752;2023-08-12T08:26:48;6.15;;;3.20;;
27489;SDS011;14925;51.026;13.752;2023-08-12T08:29:13;10.02;;;3.70;;
27489;SDS011;14925;51.026;13.752;2023-08-12T08:31:39;6.43;;;2.88;;
27489;SDS011;14925;51.026;13.752;2023-08-12T08:34:04;8.93;;;3.60;;
27489;SDS011;14925;51.026;13.752;2023-08-12T08:36:30;8.63;;;3.22;;
27489;SDS011;14925;51.026;13.752;2023-08-12T08:38:56;5.88;;;3.25;;
27489;SDS011;14925;51.026;13.752;2023-08-12T08:41:21;10.05;;;2.83;;
27489;SDS011;14925;51.026;13.752;2023-08-12T08:43:50;9.07;;;3.20;;
27489;SDS011;14925;51.026;13.752;2023-08-12T08:46:19;7.22;;;3.13;;
27489;SDS011;14925;51.026;13.752;2023-08-12T08:48:45;5.00;;;2.70;;
27489;SDS011;14925;51.026;13.752;2023-08-12T08:51:12;5.10;;;2.75;;
27489;SDS011;14925;51.026;13.752;2023-08-12T08:53:37;4.60;;;3.15;;
27489;SDS011;14925;51.026;13.752;2023-08-12T08:56:06;11.10;;;2.90;;
27489;SDS011;14925;51.026;13.752;2023-08-12T08:58:33;6.15;;;2.92;;
27489;SDS011;14925;51.026;13.752;2023-08-12T09:00:59;8.00;;;3.40;;
27489;SDS011;14925;51.026;13.752;2023-08-12T09:03:25;7.35;;;3.28;;
27489;SDS011;14925;51.026;13.752;2023-08-12T09:05:51;4.15;;;2.63;;
27489;SDS011;14925;51.026;13.752;2023-08-12T09:08:18;7.55;;;2.88;;
27489;SDS011;14925;51.026;13.752;2023-08-12T09:10:43;6.57;;;3.10;;
27489;SDS011;14925;51.026;13.752;2023-08-12T09:13:11;5.50;;;2.67;;
27489;SDS011;14925;51.026;13.752;2023-08-12T09:15:36;8.35;;;2.80;;
27489;SDS011;14925;51.026;13.752;2023-08-12T09:18:04;6.97;;;2.67;;
27489;SDS011;14925;51.026;13.752;2023-08-12T09:20:30;3.13;;;2.30;;
27489;SDS011;14925;51.026;13.752;2023-08-12T09:22:56;3.55;;;2.25;;
27489;SDS011;14925;51.026;13.752;2023-08-12T09:25:22;6.32;;;2.70;;
27489;SDS011;14925;51.026;13.752;2023-08-12T09:27:58;3.10;;;2.10;;
27489;SDS011;14925;51.026;13.752;2023-08-12T09:30:24;3.60;;;2.10;;
27489;SDS011;14925;51.026;13.752;2023-08-12T09:32:57;4.63;;;1.98;;
27489;SDS011;14925;51.026;13.752;2023-08-12T09:35:41;3.42;;;1.77;;
27489;SDS011;14925;51.026;13.752;2023-08-12T09:38:09;5.30;;;2.03;;
27489;SDS011;14925;51.026;13.752;2023-08-12T09:40:36;2.85;;;1.33;;
27489;SDS011;14925;51.026;13.752;2023-08-12T09:43:02;2.53;;;1.58;;
27489;SDS011;14925;51.026;13.752;2023-08-12T09:45:28;4.43;;;1.80;;
27489;SDS011;14925;51.026;13.752;2023-08-12T09:47:56;1.88;;;1.40;;
27489;SDS011;14925;51.026;13.752;2023-08-12T09:50:23;1.70;;;1.40;;
27489;SDS011;14925;51.026;13.752;2023-08-12T09:52:50;2.47;;;1.50;;
27489;SDS011;14925;51.026;13.752;2023-08-12T09:55:16;1.90;;;1.50;;
27489;SDS011;14925;51.026;13.752;2023-08-12T09:57:43;4.00;;;1.27;;
27489;SDS011;14925;51.026;13.752;2023-08-12T10:00:11;2.67;;;1.38;;
27489;SDS011;14925;51.026;13.752;2023-08-12T10:02:44;2.05;;;1.33;;
27489;SDS011;14925;51.026;13.752;2023-08-12T10:05:11;1.75;;;1.30;;
27489;SDS011;14925;51.026;13.752;2023-08-12T10:07:39;4.75;;;1.35;;
27489;SDS011;14925;51.026;13.752;2023-08-12T10:10:05;4.00;;;1.30;;
27489;SDS011;14925;51.026;13.752;2023-08-12T10:12:35;2.40;;;1.40;;
27489;SDS011;14925;51.026;13.752;2023-08-12T10:15:01;2.60;;;1.27;;
27489;SDS011;14925;51.026;13.752;2023-08-12T10:17:26;5.53;;;1.83;;
27489;SDS011;14925;51.026;13.752;2023-08-12T10:19:56;7.18;;;1.80;;
27489;SDS011;14925;51.026;13.752;2023-08-12T10:22:25;6.10;;;1.50;;
27489;SDS011;14925;51.026;13.752;2023-08-12T10:24:51;3.55;;;1.40;;
27489;SDS011;14925;51.026;13.752;2023-08-12T10:27:17;3.53;;;1.40;;
27489;SDS011;14925;51.026;13.752;2023-08-12T10:29:43;2.30;;;1.50;;
27489;SDS011;14925;51.026;13.752;2023-08-12T10:32:11;3.28;;;1.30;;
27489;SDS011;14925;51.026;13.752;2023-08-12T10:34:38;5.40;;;1.40;;
27489;SDS011;14925;51.026;13.752;2023-08-12T10:37:03;4.38;;;1.30;;
27489;SDS011;14925;51.026;13.752;2023-08-12T10:39:32;2.25;;;1.38;;
27489;SDS011;14925;51.026;13.752;2023-08-12T10:41:59;2.63;;;1.45;;
27489;SDS011;14925;51.026;13.752;2023-08-12T10:44:48;3.05;;;1.40;;
27489;SDS011;14925;51.026;13.752;2023-08-12T10:47:19;3.10;;;1.40;;
27489;SDS011;14925;51.026;13.752;2023-08-12T10:49:48;3.15;;;1.55;;
27489;SDS011;14925;51.026;13.752;2023-08-12T10:52:27;1.50;;;1.35;;
27489;SDS011;14925;51.026;13.752;2023-08-12T10:54:53;3.13;;;1.70;;
27489;SDS011;14925;51.026;13.752;2023-08-12T10:57:19;3.00;;;1.30;;
27489;SDS011;14925;51.026;13.752;2023-08-12T10:59:59;3.15;;;1.33;;
27489;SDS011;14925;51.026;13.752;2023-08-12T11:02:29;2.85;;;1.90;;
27489;SDS011;14925;51.026;13.752;2023-08-12T11:10:10;3.55;;;1.95;;
27489;SDS011;14925;51.026;13.752;2023-08-12T11:15:17;3.45;;;1.63;;
27489;SDS011;14925;51.026;13.752;2023-08-12T11:17:45;2.60;;;1.60;;
27489;SDS011;14925;51.026;13.752;2023-08-12T11:20:13;2.75;;;1.60;;
27489;SDS011;14925;51.026;13.752;2023-08-12T11:22:42;3.15;;;1.70;;
27489;SDS011;14925;51.026;13.752;2023-08-12T11:25:09;3.10;;;1.60;;
27489;SDS011;14925;51.026;13.752;2023-08-12T11:27:43;3.60;;;1.58;;
27489;SDS011;14925;51.026;13.752;2023-08-12T11:30:11;2.80;;;1.60;;
27489;SDS011;14925;51.026;13.752;2023-08-12T11:32:44;3.13;;;1.48;;
27489;SDS011;14925;51.026;13.752;2023-08-12T11:35:11;3.22;;;1.70;;
27489;SDS011;14925;51.026;13.752;2023-08-12T11:37:38;1.75;;;1.60;;
27489;SDS011;14925;51.026;13.752;2023-08-12T11:40:05;3.72;;;1.50;;
27489;SDS011;14925;51.026;13.752;2023-08-12T11:42:31;2.25;;;1.70;;
27489;SDS011;14925;51.026;13.752;2023-08-12T11:44:56;3.10;;;1.88;;
27489;SDS011;14925;51.026;13.752;2023-08-12T11:47:22;4.40;;;1.60;;
27489;SDS011;14925;51.026;13.752;2023-08-12T11:49:47;4.50;;;1.75;;
27489;SDS011;14925;51.026;13.752;2023-08-12T11:52:13;2.83;;;1.80;;
27489;SDS011;14925;51.026;13.752;2023-08-12T11:54:39;3.78;;;2.10;;
27489;SDS011;14925;51.026;13.752;2023-08-12T11:57:05;3.15;;;2.03;;
27489;SDS011;14925;51.026;13.752;2023-08-12T11:59:30;6.35;;;1.95;;
27489;SDS011;14925;51.026;13.752;2023-08-12T12:02:01;6.07;;;2.00;;
27489;SDS011;14925;51.026;13.752;2023-08-12T12:04:27;5.55;;;1.77;;
27489;SDS011;14925;51.026;13.752;2023-08-12T12:06:52;5.80;;;2.30;;
27489;SDS011;14925;51.026;13.752;2023-08-12T12:09:17;2.33;;;1.80;;
27489;SDS011;14925;51.026;13.752;2023-08-12T12:11:46;3.28;;;1.70;;
27489;SDS011;14925;51.026;13.752;2023-08-12T12:14:11;4.00;;;2.10;;
27489;SDS011;14925;51.026;13.752;2023-08-12T12:16:37;5.82;;;1.80;;
27489;SDS011;14925;51.026;13.752;2023-08-12T12:21:48;7.05;;;2.08;;
27489;SDS011;14925;51.026;13.752;2023-08-12T12:24:15;6.43;;;2.33;;
27489;SDS011;14925;51.026;13.752;2023-08-12T12:26:41;5.50;;;2.15;;
27489;SDS011;14925;51.026;13.752;2023-08-12T12:29:06;4.20;;;1.90;;
27489;SDS011;14925;51.026;13.752;2023-08-12T12:31:32;5.05;;;2.17;;
27489;SDS011;14925;51.026;13.752;2023-08-12T12:33:59;4.03;;;2.10;;
27489;SDS011;14925;51.026;13.752;2023-08-12T12:36:25;4.22;;;2.25;;
27489;SDS011;14925;51.026;13.752;2023-08-12T12:38:51;5.15;;;2.10;;
27489;SDS011;14925;51.026;13.752;2023-08-12T12:41:16;2.40;;;1.98;;
27489;SDS011;14925;51.026;13.752;2023-08-12T12:43:42;4.32;;;2.20;;
27489;SDS011;14925;51.026;13.752;2023-08-12T12:46:07;2.50;;;1.80;;
27489;SDS011;14925;51.026;13.752;2023-08-12T12:48:33;2.60;;;1.90;;
27489;SDS011;14925;51.026;13.752;2023-08-12T12:50:59;2.42;;;1.90;;
27489;SDS011;14925;51.026;13.752;2023-08-12T12:53:24;6.18;;;1.90;;
27489;SDS011;14925;51.026;13.752;2023-08-12T12:55:50;2.55;;;1.90;;
27489;SDS011;14925;51.026;13.752;2023-08-12T12:58:15;5.43;;;2.05;;
27489;SDS011;14925;51.026;13.752;2023-08-12T13:00:41;2.20;;;1.88;;
27489;SDS011;14925;51.026;13.752;2023-08-12T13:03:06;3.35;;;2.05;;
27489;SDS011;14925;51.026;13.752;2023-08-12T13:05:32;5.95;;;2.47;;
27489;SDS011;14925;51.026;13.752;2023-08-12T13:07:57;3.92;;;2.30;;
27489;SDS011;14925;51.026;13.752;2023-08-12T13:10:22;3.38;;;2.03;;
27489;SDS011;14925;51.026;13.752;2023-08-12T13:12:48;3.50;;;2.05;;
27489;SDS011;14925;51.026;13.752;2023-08-12T13:15:13;3.42;;;2.05;;
27489;SDS011;14925;51.026;13.752;2023-08-12T13:17:39;5.88;;;2.10;;
27489;SDS011;14925;51.026;13.752;2023-08-12T13:20:05;4.68;;;2.15;;
27489;SDS011;14925;51.026;13.752;2023-08-12T13:22:31;6.10;;;2.80;;
27489;SDS011;14925;51.026;13.752;2023-08-12T13:24:56;5.90;;;2.70;;
27489;SDS011;14925;51.026;13.752;2023-08-12T13:27:22;5.35;;;2.70;;
27489;SDS011;14925;51.026;13.752;2023-08-12T13:29:51;9.07;;;2.50;;
27489;SDS011;14925;51.026;13.752;2023-08-12T13:32:16;6.97;;;3.00;;
27489;SDS011;14925;51.026;13.752;2023-08-12T13:34:42;7.57;;;2.63;;
27489;SDS011;14925;51.026;13.752;2023-08-12T13:37:14;6.32;;;2.53;;
27489;SDS011;14925;51.026;13.752;2023-08-12T13:39:40;7.10;;;3.03;;
27489;SDS011;14925;51.026;13.752;2023-08-12T13:42:05;10.05;;;2.83;;
27489;SDS011;14925;51.026;13.752;2023-08-12T13:44:30;9.02;;;3.22;;
27489;SDS011;14925;51.026;13.752;2023-08-12T13:46:56;6.68;;;3.28;;
27489;SDS011;14925;51.026;13.752;2023-08-12T13:49:21;9.38;;;2.90;;
27489;SDS011;14925;51.026;13.752;2023-08-12T13:51:46;6.07;;;3.10;;
27489;SDS011;14925;51.026;13.752;2023-08-12T13:54:12;4.60;;;2.78;;
27489;SDS011;14925;51.026;13.752;2023-08-12T13:56:37;8.98;;;3.20;;
27489;SDS011;14925;51.026;13.752;2023-08-12T13:59:03;6.22;;;3.00;;
27489;SDS011;14925;51.026;13.752;2023-08-12T14:01:29;5.60;;;3.33;;
27489;SDS011;14925;51.026;13.752;2023-08-12T14:03:54;5.82;;;2.90;;
27489;SDS011;14925;51.026;13.752;2023-08-12T14:06:19;8.65;;;3.30;;
27489;SDS011;14925;51.026;13.752;2023-08-12T14:08:45;10.00;;;3.40;;
27489;SDS011;14925;51.026;13.752;2023-08-12T14:11:11;4.93;;;3.00;;
27489;SDS011;14925;51.026;13.752;2023-08-12T14:13:36;8.13;;;2.90;;
27489;SDS011;14925;51.026;13.752;2023-08-12T14:16:01;7.68;;;2.92;;
27489;SDS011;14925;51.026;13.752;2023-08-12T14:18:27;11.57;;;3.30;;
27489;SDS011;14925;51.026;13.752;2023-08-12T14:20:52;6.00;;;2.80;;
27489;SDS011;14925;51.026;13.752;2023-08-12T14:23:17;8.23;;;3.10;;
27489;SDS011;14925;51.026;13.752;2023-08-12T14:25:43;7.45;;;2.70;;
27489;SDS011;14925;51.026;13.752;2023-08-12T14:28:08;5.68;;;3.10;;
27489;SDS011;14925;51.026;13.752;2023-08-12T14:30:36;5.13;;;2.85;;
27489;SDS011;14925;51.026;13.752;2023-08-12T14:33:02;7.10;;;2.60;;
27489;SDS011;14925;51.026;13.752;2023-08-12T14:35:27;5.80;;;2.85;;
27489;SDS011;14925;51.026;13.752;2023-08-12T14:37:53;5.85;;;2.72;;
27489;SDS011;14925;51.026;13.752;2023-08-12T14:40:18;3.95;;;2.60;;
27489;SDS011;14925;51.026;13.752;2023-08-12T14:42:44;6.43;;;2.47;;